sensor_id;sensor_type;location;lat;lon;timestamp;temperature;humidity
13346;DHT22;6742;48.036;15.780;2022-08-19T09:14:47;28.30;99.30
13346;DHT22;6742;48.036;15.780;2022-08-19T09:24:54;28.80;98.30
13346;DHT22;6742;48.036;15.780;2022-08-19T09:27:22;29.00;97.70
13346;DHT22;6742;48.036;15.780;2022-08-19T09:29:57;29.20;97.00
13346;DHT22;6742;48.036;15.780;2022-08-19T09:32:25;29.10;96.90
13346;DHT22;6742;48.036;15.780;2022-08-19T09:34:53;28.90;95.70
13346;DHT22;6742;48.036;15.780;2022-08-19T09:37:26;28.70;97.00
13346;DHT22;6742;48.036;15.780;2022-08-19T09:39:53;28.40;98.00
13346;DHT22;6742;48.036;15.780;2022-08-19T09:42:20;28.20;97.70
13346;DHT22;6742;48.036;15.780;2022-08-19T09:44:47;28.10;99.40
13346;DHT22;6742;48.036;15.780;2022-08-19T09:47:16;28.30;99.30
13346;DHT22;6742;48.036;15.780;2022-08-19T09:49:43;28.40;99.10
13346;DHT22;6742;48.036;15.780;2022-08-19T09:52:10;28.30;98.30
13346;DHT22;6742;48.036;15.780;2022-08-19T09:54:38;28.30;98.40
13346;DHT22;6742;48.036;15.780;2022-08-19T09:57:05;28.30;98.40
13346;DHT22;6742;48.036;15.780;2022-08-19T09:59:32;28.20;99.30
13346;DHT22;6742;48.036;15.780;2022-08-19T10:02:00;28.20;99.40
13346;DHT22;6742;48.036;15.780;2022-08-19T10:04:28;28.20;99.90
13346;DHT22;6742;48.036;15.780;2022-08-19T10:07:09;28.10;99.90
13346;DHT22;6742;48.036;15.780;2022-08-19T10:09:36;28.10;99.20
13346;DHT22;6742;48.036;15.780;2022-08-19T10:12:04;28.10;99.60
13346;DHT22;6742;48.036;15.780;2022-08-19T10:14:32;28.20;99.90
13346;DHT22;6742;48.036;15.780;2022-08-19T10:16:59;28.30;99.90
13346;DHT22;6742;48.036;15.780;2022-08-19T10:19:29;28.60;99.90
13346;DHT22;6742;48.036;15.780;2022-08-19T10:22:06;28.90;98.40
13346;DHT22;6742;48.036;15.780;2022-08-19T10:24:33;28.90;98.90
13346;DHT22;6742;48.036;15.780;2022-08-19T10:27:01;28.90;97.20
13346;DHT22;6742;48.036;15.780;2022-08-19T10:29:29;28.70;96.40
13346;DHT22;6742;48.036;15.780;2022-08-19T10:31:57;28.50;95.50
13346;DHT22;6742;48.036;15.780;2022-08-19T10:34:25;28.30;96.70
13346;DHT22;6742;48.036;15.780;2022-08-19T10:36:54;28.20;96.60
13346;DHT22;6742;48.036;15.780;2022-08-19T10:39:21;28.10;95.90
13346;DHT22;6742;48.036;15.780;2022-08-19T10:41:48;28.10;96.40
13346;DHT22;6742;48.036;15.780;2022-08-19T10:44:15;28.20;96.50
13346;DHT22;6742;48.036;15.780;2022-08-19T10:46:43;28.20;95.40
13346;DHT22;6742;48.036;15.780;2022-08-19T10:49:13;28.20;96.00
13346;DHT22;6742;48.036;15.780;2022-08-19T10:51:40;28.20;95.20
13346;DHT22;6742;48.036;15.780;2022-08-19T10:54:26;28.20;94.90
13346;DHT22;6742;48.036;15.780;2022-08-19T10:57:16;28.00;95.10
13346;DHT22;6742;48.036;15.780;2022-08-19T10:59:42;28.10;94.60
13346;DHT22;6742;48.036;15.780;2022-08-19T11:02:10;28.00;94.60
13346;DHT22;6742;48.036;15.780;2022-08-19T11:04:39;28.10;94.50
13346;DHT22;6742;48.036;15.780;2022-08-19T11:07:07;28.40;94.50
13346;DHT22;6742;48.036;15.780;2022-08-19T11:09:40;28.70;93.70
13346;DHT22;6742;48.036;15.780;2022-08-19T11:12:07;28.90;93.80
13346;DHT22;6742;48.036;15.780;2022-08-19T11:14:35;28.90;93.00
13346;DHT22;6742;48.036;15.780;2022-08-19T11:17:03;28.90;92.90
13346;DHT22;6742;48.036;15.780;2022-08-19T11:19:31;28.80;93.60
13346;DHT22;6742;48.036;15.780;2022-08-19T11:21:59;28.70;93.30
13346;DHT22;6742;48.036;15.780;2022-08-19T11:24:28;28.50;93.70
13346;DHT22;6742;48.036;15.780;2022-08-19T11:27:02;28.40;94.60
13346;DHT22;6742;48.036;15.780;2022-08-19T11:29:31;28.40;95.60
13346;DHT22;6742;48.036;15.780;2022-08-19T11:32:00;28.40;94.60
13346;DHT22;6742;48.036;15.780;2022-08-19T11:34:28;28.50;94.20
13346;DHT22;6742;48.036;15.780;2022-08-19T11:36:56;28.50;93.10
13346;DHT22;6742;48.036;15.780;2022-08-19T11:39:26;28.50;92.90
13346;DHT22;6742;48.036;15.780;2022-08-19T11:41:55;28.40;92.20
13346;DHT22;6742;48.036;15.780;2022-08-19T11:44:24;28.30;91.80
13346;DHT22;6742;48.036;15.780;2022-08-19T11:46:51;28.30;92.00
13346;DHT22;6742;48.036;15.780;2022-08-19T11:49:19;28.20;94.70
13346;DHT22;6742;48.036;15.780;2022-08-19T11:51:47;28.20;92.00
13346;DHT22;6742;48.036;15.780;2022-08-19T11:54:16;28.10;93.10
13346;DHT22;6742;48.036;15.780;2022-08-19T11:56:43;28.10;94.30
13346;DHT22;6742;48.036;15.780;2022-08-19T11:59:12;28.00;93.10
13346;DHT22;6742;48.036;15.780;2022-08-19T12:01:39;27.80;92.10
13346;DHT22;6742;48.036;15.780;2022-08-19T12:04:08;27.70;91.50
13346;DHT22;6742;48.036;15.780;2022-08-19T12:06:39;27.60;92.90
13346;DHT22;6742;48.036;15.780;2022-08-19T12:09:08;27.40;91.50
13346;DHT22;6742;48.036;15.780;2022-08-19T12:11:36;27.40;92.20
13346;DHT22;6742;48.036;15.780;2022-08-19T12:14:03;27.40;91.70
13346;DHT22;6742;48.036;15.780;2022-08-19T12:16:32;27.30;91.30
13346;DHT22;6742;48.036;15.780;2022-08-19T12:18:59;27.20;92.40
13346;DHT22;6742;48.036;15.780;2022-08-19T12:21:31;27.10;92.00
13346;DHT22;6742;48.036;15.780;2022-08-19T12:24:00;27.00;92.90
13346;DHT22;6742;48.036;15.780;2022-08-19T12:26:28;27.00;92.80
13346;DHT22;6742;48.036;15.780;2022-08-19T12:28:57;26.90;92.90
13346;DHT22;6742;48.036;15.780;2022-08-19T12:31:25;26.90;92.00
13346;DHT22;6742;48.036;15.780;2022-08-19T12:33:57;27.00;91.80
13346;DHT22;6742;48.036;15.780;2022-08-19T12:36:28;27.00;93.60
13346;DHT22;6742;48.036;15.780;2022-08-19T12:38:55;27.10;91.70
13346;DHT22;6742;48.036;15.780;2022-08-19T12:41:24;27.00;91.50
13346;DHT22;6742;48.036;15.780;2022-08-19T12:43:51;27.00;92.00
13346;DHT22;6742;48.036;15.780;2022-08-19T12:46:22;27.00;94.10
13346;DHT22;6742;48.036;15.780;2022-08-19T12:48:49;26.90;93.90
13346;DHT22;6742;48.036;15.780;2022-08-19T12:51:19;26.80;92.90
13346;DHT22;6742;48.036;15.780;2022-08-19T12:53:47;26.80;92.50
13346;DHT22;6742;48.036;15.780;2022-08-19T12:56:15;26.80;91.50
13346;DHT22;6742;48.036;15.780;2022-08-19T12:58:42;26.70;90.90
13346;DHT22;6742;48.036;15.780;2022-08-19T13:01:11;26.80;91.90
13346;DHT22;6742;48.036;15.780;2022-08-19T13:03:39;26.70;91.70
13346;DHT22;6742;48.036;15.780;2022-08-19T13:06:09;26.80;91.90
13346;DHT22;6742;48.036;15.780;2022-08-19T13:08:37;26.70;92.00
13346;DHT22;6742;48.036;15.780;2022-08-19T13:11:09;26.70;92.30
13346;DHT22;6742;48.036;15.780;2022-08-19T13:13:38;26.70;92.60
13346;DHT22;6742;48.036;15.780;2022-08-19T13:16:07;26.60;92.90
13346;DHT22;6742;48.036;15.780;2022-08-19T13:18:35;26.50;94.60
13346;DHT22;6742;48.036;15.780;2022-08-19T13:21:03;26.40;94.10
13346;DHT22;6742;48.036;15.780;2022-08-19T13:23:30;26.40;93.40
13346;DHT22;6742;48.036;15.780;2022-08-19T13:26:00;26.40;93.10
13346;DHT22;6742;48.036;15.780;2022-08-19T13:28:28;26.30;92.70
13346;DHT22;6742;48.036;15.780;2022-08-19T13:31:16;26.20;92.90
13346;DHT22;6742;48.036;15.780;2022-08-19T13:34:00;26.20;93.50
13346;DHT22;6742;48.036;15.780;2022-08-19T13:36:27;26.20;93.70
13346;DHT22;6742;48.036;15.780;2022-08-19T13:38:55;26.30;95.20
13346;DHT22;6742;48.036;15.780;2022-08-19T13:41:24;26.40;95.00
13346;DHT22;6742;48.036;15.780;2022-08-19T13:43:52;26.40;94.10
13346;DHT22;6742;48.036;15.780;2022-08-19T13:46:19;26.50;94.80
13346;DHT22;6742;48.036;15.780;2022-08-19T13:48:47;26.70;95.10
13346;DHT22;6742;48.036;15.780;2022-08-19T13:51:14;26.80;95.80
13346;DHT22;6742;48.036;15.780;2022-08-19T13:53:42;26.90;93.50
13346;DHT22;6742;48.036;15.780;2022-08-19T13:56:15;27.00;92.30
13346;DHT22;6742;48.036;15.780;2022-08-19T13:58:43;27.10;92.60
13346;DHT22;6742;48.036;15.780;2022-08-19T14:01:10;27.10;92.50
13346;DHT22;6742;48.036;15.780;2022-08-19T14:03:38;27.30;92.90
13346;DHT22;6742;48.036;15.780;2022-08-19T14:06:05;27.30;92.50
13346;DHT22;6742;48.036;15.780;2022-08-19T14:08:32;27.30;92.50
13346;DHT22;6742;48.036;15.780;2022-08-19T14:10:59;27.20;92.70
13346;DHT22;6742;48.036;15.780;2022-08-19T14:13:26;27.20;93.20
13346;DHT22;6742;48.036;15.780;2022-08-19T14:15:54;27.10;92.80
13346;DHT22;6742;48.036;15.780;2022-08-19T14:18:21;27.10;93.00
13346;DHT22;6742;48.036;15.780;2022-08-19T14:20:50;27.10;92.90
13346;DHT22;6742;48.036;15.780;2022-08-19T14:23:17;27.10;92.00
13346;DHT22;6742;48.036;15.780;2022-08-19T14:25:45;27.10;91.90
13346;DHT22;6742;48.036;15.780;2022-08-19T14:28:13;27.10;93.00
13346;DHT22;6742;48.036;15.780;2022-08-19T14:30:40;27.00;93.90
13346;DHT22;6742;48.036;15.780;2022-08-19T14:33:08;27.00;92.30
13346;DHT22;6742;48.036;15.780;2022-08-19T14:35:38;27.00;92.90
13346;DHT22;6742;48.036;15.780;2022-08-19T14:38:16;26.90;93.40
13346;DHT22;6742;48.036;15.780;2022-08-19T14:40:43;26.90;94.30
13346;DHT22;6742;48.036;15.780;2022-08-19T14:43:11;26.80;94.60
13346;DHT22;6742;48.036;15.780;2022-08-19T14:45:40;26.70;94.90
13346;DHT22;6742;48.036;15.780;2022-08-19T14:48:09;26.70;95.10
13346;DHT22;6742;48.036;15.780;2022-08-19T14:50:36;26.60;94.30
13346;DHT22;6742;48.036;15.780;2022-08-19T14:53:05;26.50;94.80
13346;DHT22;6742;48.036;15.780;2022-08-19T14:55:35;26.50;95.20
13346;DHT22;6742;48.036;15.780;2022-08-19T14:58:02;26.50;95.50
13346;DHT22;6742;48.036;15.780;2022-08-19T15:00:29;26.50;94.70
13346;DHT22;6742;48.036;15.780;2022-08-19T15:02:56;26.50;95.10
13346;DHT22;6742;48.036;15.780;2022-08-19T15:05:25;26.50;94.00
13346;DHT22;6742;48.036;15.780;2022-08-19T15:07:53;26.60;94.10
13346;DHT22;6742;48.036;15.780;2022-08-19T15:10:22;26.60;94.30
13346;DHT22;6742;48.036;15.780;2022-08-19T15:12:50;26.60;94.30
13346;DHT22;6742;48.036;15.780;2022-08-19T15:15:17;26.60;94.10
13346;DHT22;6742;48.036;15.780;2022-08-19T15:17:45;26.60;93.80
13346;DHT22;6742;48.036;15.780;2022-08-19T15:20:14;26.50;93.90
13346;DHT22;6742;48.036;15.780;2022-08-19T15:22:43;26.60;93.80
13346;DHT22;6742;48.036;15.780;2022-08-19T15:25:12;26.50;93.90
13346;DHT22;6742;48.036;15.780;2022-08-19T15:27:40;26.50;94.00
13346;DHT22;6742;48.036;15.780;2022-08-19T15:30:09;26.50;93.60
13346;DHT22;6742;48.036;15.780;2022-08-19T15:32:38;26.60;92.70
13346;DHT22;6742;48.036;15.780;2022-08-19T15:35:06;26.60;92.50
13346;DHT22;6742;48.036;15.780;2022-08-19T15:37:33;26.60;93.40
13346;DHT22;6742;48.036;15.780;2022-08-19T15:40:03;26.70;92.90
13346;DHT22;6742;48.036;15.780;2022-08-19T15:42:30;26.70;93.40
13346;DHT22;6742;48.036;15.780;2022-08-19T15:44:57;26.70;93.00
13346;DHT22;6742;48.036;15.780;2022-08-19T15:47:24;26.70;92.40
13346;DHT22;6742;48.036;15.780;2022-08-19T15:49:51;26.60;93.10
13346;DHT22;6742;48.036;15.780;2022-08-19T15:52:19;26.70;91.80
13346;DHT22;6742;48.036;15.780;2022-08-19T15:54:46;26.60;92.00
13346;DHT22;6742;48.036;15.780;2022-08-19T15:57:18;26.60;91.80
13346;DHT22;6742;48.036;15.780;2022-08-19T16:00:03;26.70;91.90
13346;DHT22;6742;48.036;15.780;2022-08-19T16:02:48;26.70;92.00
13346;DHT22;6742;48.036;15.780;2022-08-19T16:05:32;26.70;91.90
13346;DHT22;6742;48.036;15.780;2022-08-19T16:08:16;26.70;91.80
13346;DHT22;6742;48.036;15.780;2022-08-19T16:10:44;26.60;91.60
13346;DHT22;6742;48.036;15.780;2022-08-19T16:13:13;26.60;91.80
13346;DHT22;6742;48.036;15.780;2022-08-19T16:15:40;26.60;91.70
13346;DHT22;6742;48.036;15.780;2022-08-19T16:18:09;26.60;91.60
13346;DHT22;6742;48.036;15.780;2022-08-19T16:20:36;26.60;91.50
13346;DHT22;6742;48.036;15.780;2022-08-19T16:23:03;26.50;91.90
13346;DHT22;6742;48.036;15.780;2022-08-19T16:25:30;26.60;91.80
13346;DHT22;6742;48.036;15.780;2022-08-19T16:27:58;26.60;91.50
13346;DHT22;6742;48.036;15.780;2022-08-19T16:30:27;26.50;92.20
13346;DHT22;6742;48.036;15.780;2022-08-19T16:32:54;26.50;92.90
13346;DHT22;6742;48.036;15.780;2022-08-19T16:35:21;26.50;92.50
13346;DHT22;6742;48.036;15.780;2022-08-19T16:37:48;26.50;92.70
13346;DHT22;6742;48.036;15.780;2022-08-19T16:40:18;26.40;92.50
13346;DHT22;6742;48.036;15.780;2022-08-19T16:42:45;26.30;93.20
13346;DHT22;6742;48.036;15.780;2022-08-19T16:45:12;26.20;93.90
13346;DHT22;6742;48.036;15.780;2022-08-19T16:47:40;26.10;94.10
13346;DHT22;6742;48.036;15.780;2022-08-19T16:50:07;26.00;94.90
13346;DHT22;6742;48.036;15.780;2022-08-19T16:52:34;25.90;95.10
13346;DHT22;6742;48.036;15.780;2022-08-19T16:55:03;25.80;95.50
13346;DHT22;6742;48.036;15.780;2022-08-19T16:57:30;25.80;96.00
13346;DHT22;6742;48.036;15.780;2022-08-19T16:59:57;25.70;96.60
13346;DHT22;6742;48.036;15.780;2022-08-19T17:02:33;25.60;96.80
13346;DHT22;6742;48.036;15.780;2022-08-19T17:05:01;25.40;96.70
13346;DHT22;6742;48.036;15.780;2022-08-19T17:07:29;25.40;96.50
13346;DHT22;6742;48.036;15.780;2022-08-19T17:09:56;25.30;96.90
13346;DHT22;6742;48.036;15.780;2022-08-19T17:12:23;25.30;97.20
13346;DHT22;6742;48.036;15.780;2022-08-19T17:14:51;25.20;97.50
13346;DHT22;6742;48.036;15.780;2022-08-19T17:17:18;25.20;97.90
13346;DHT22;6742;48.036;15.780;2022-08-19T17:19:46;25.10;97.70
13346;DHT22;6742;48.036;15.780;2022-08-19T17:22:14;25.10;97.70
13346;DHT22;6742;48.036;15.780;2022-08-19T17:24:41;25.10;97.50
13346;DHT22;6742;48.036;15.780;2022-08-19T17:27:08;25.20;97.90
13346;DHT22;6742;48.036;15.780;2022-08-19T17:29:39;25.20;98.10
13346;DHT22;6742;48.036;15.780;2022-08-19T17:32:06;25.20;97.90
13346;DHT22;6742;48.036;15.780;2022-08-19T17:34:34;25.10;98.00
13346;DHT22;6742;48.036;15.780;2022-08-19T17:37:01;25.10;98.30
13346;DHT22;6742;48.036;15.780;2022-08-19T17:39:29;25.10;98.80
13346;DHT22;6742;48.036;15.780;2022-08-19T17:41:56;24.90;99.10
13346;DHT22;6742;48.036;15.780;2022-08-19T17:44:23;24.70;99.20
13346;DHT22;6742;48.036;15.780;2022-08-19T17:46:50;24.60;99.90
13346;DHT22;6742;48.036;15.780;2022-08-19T17:49:18;24.40;99.90
13346;DHT22;6742;48.036;15.780;2022-08-19T17:51:46;24.30;99.90
13346;DHT22;6742;48.036;15.780;2022-08-19T17:54:16;24.10;99.90
13346;DHT22;6742;48.036;15.780;2022-08-19T17:56:45;24.00;99.90
13346;DHT22;6742;48.036;15.780;2022-08-19T17:59:13;24.00;99.90
13346;DHT22;6742;48.036;15.780;2022-08-19T18:01:40;23.90;99.90
13346;DHT22;6742;48.036;15.780;2022-08-19T18:04:07;23.90;99.90
13346;DHT22;6742;48.036;15.780;2022-08-19T18:06:34;23.80;99.90
13346;DHT22;6742;48.036;15.780;2022-08-19T18:09:05;23.80;99.90
13346;DHT22;6742;48.036;15.780;2022-08-19T18:11:33;23.80;99.90
13346;DHT22;6742;48.036;15.780;2022-08-19T18:14:04;23.80;99.90
13346;DHT22;6742;48.036;15.780;2022-08-19T18:16:31;23.70;99.90
13346;DHT22;6742;48.036;15.780;2022-08-19T18:18:58;23.60;99.90
13346;DHT22;6742;48.036;15.780;2022-08-19T18:21:25;23.60;99.90
13346;DHT22;6742;48.036;15.780;2022-08-19T18:23:57;23.60;99.90
13346;DHT22;6742;48.036;15.780;2022-08-19T18:26:24;23.70;99.90
13346;DHT22;6742;48.036;15.780;2022-08-19T18:28:51;23.60;99.90
13346;DHT22;6742;48.036;15.780;2022-08-19T18:31:20;23.60;99.90
13346;DHT22;6742;48.036;15.780;2022-08-19T18:33:48;23.60;99.90
13346;DHT22;6742;48.036;15.780;2022-08-19T18:36:17;23.60;99.90
13346;DHT22;6742;48.036;15.780;2022-08-19T18:38:45;23.50;99.90
13346;DHT22;6742;48.036;15.780;2022-08-19T18:41:29;23.50;99.90
13346;DHT22;6742;48.036;15.780;2022-08-19T18:44:13;23.60;99.90
13346;DHT22;6742;48.036;15.780;2022-08-19T18:46:59;23.60;99.90
13346;DHT22;6742;48.036;15.780;2022-08-19T18:49:43;23.60;99.90
13346;DHT22;6742;48.036;15.780;2022-08-19T18:52:10;23.70;99.90
13346;DHT22;6742;48.036;15.780;2022-08-19T18:54:37;23.70;99.90
13346;DHT22;6742;48.036;15.780;2022-08-19T18:57:05;23.70;99.90
13346;DHT22;6742;48.036;15.780;2022-08-19T18:59:34;23.60;99.90
13346;DHT22;6742;48.036;15.780;2022-08-19T19:02:04;23.70;99.90
13346;DHT22;6742;48.036;15.780;2022-08-19T19:04:35;23.60;99.90
13346;DHT22;6742;48.036;15.780;2022-08-19T19:07:03;23.60;99.90
13346;DHT22;6742;48.036;15.780;2022-08-19T19:09:30;23.60;99.90
13346;DHT22;6742;48.036;15.780;2022-08-19T19:11:59;23.60;99.90
13346;DHT22;6742;48.036;15.780;2022-08-19T19:14:28;23.60;99.90
13346;DHT22;6742;48.036;15.780;2022-08-19T19:16:57;23.50;99.90
13346;DHT22;6742;48.036;15.780;2022-08-19T19:19:26;23.40;99.90
13346;DHT22;6742;48.036;15.780;2022-08-19T19:21:53;23.30;99.90
13346;DHT22;6742;48.036;15.780;2022-08-19T19:24:23;23.20;99.90
13346;DHT22;6742;48.036;15.780;2022-08-19T19:26:52;23.20;99.90
13346;DHT22;6742;48.036;15.780;2022-08-19T19:29:19;23.20;99.90
13346;DHT22;6742;48.036;15.780;2022-08-19T19:31:46;23.30;99.90
13346;DHT22;6742;48.036;15.780;2022-08-19T19:34:16;23.30;99.90
13346;DHT22;6742;48.036;15.780;2022-08-19T19:36:46;23.20;99.90
13346;DHT22;6742;48.036;15.780;2022-08-19T19:39:13;23.20;99.90
13346;DHT22;6742;48.036;15.780;2022-08-19T19:41:40;23.10;99.90
13346;DHT22;6742;48.036;15.780;2022-08-19T19:44:07;23.00;99.90
13346;DHT22;6742;48.036;15.780;2022-08-19T19:46:36;23.00;99.90
13346;DHT22;6742;48.036;15.780;2022-08-19T19:49:07;22.90;99.90
13346;DHT22;6742;48.036;15.780;2022-08-19T19:51:34;22.80;99.90
13346;DHT22;6742;48.036;15.780;2022-08-19T19:54:05;22.80;99.90
13346;DHT22;6742;48.036;15.780;2022-08-19T19:56:32;22.70;99.90
13346;DHT22;6742;48.036;15.780;2022-08-19T19:58:59;22.70;99.90
13346;DHT22;6742;48.036;15.780;2022-08-19T20:01:28;22.60;99.90
13346;DHT22;6742;48.036;15.780;2022-08-19T20:03:55;22.60;99.90
13346;DHT22;6742;48.036;15.780;2022-08-19T20:06:26;22.60;99.90
13346;DHT22;6742;48.036;15.780;2022-08-19T20:08:54;22.70;99.90
13346;DHT22;6742;48.036;15.780;2022-08-19T20:11:37;22.60;99.90
13346;DHT22;6742;48.036;15.780;2022-08-19T20:14:08;22.60;99.90
13346;DHT22;6742;48.036;15.780;2022-08-19T20:16:36;22.60;99.90
13346;DHT22;6742;48.036;15.780;2022-08-19T20:19:06;22.60;99.90
13346;DHT22;6742;48.036;15.780;2022-08-19T20:21:33;22.50;99.90
13346;DHT22;6742;48.036;15.780;2022-08-19T20:24:02;22.50;99.90
13346;DHT22;6742;48.036;15.780;2022-08-19T20:26:29;22.40;99.90
13346;DHT22;6742;48.036;15.780;2022-08-19T20:28:58;22.40;99.90
13346;DHT22;6742;48.036;15.780;2022-08-19T20:31:26;22.30;99.90
13346;DHT22;6742;48.036;15.780;2022-08-19T20:33:53;22.30;99.90
13346;DHT22;6742;48.036;15.780;2022-08-19T20:36:20;22.30;99.90
13346;DHT22;6742;48.036;15.780;2022-08-19T20:38:49;22.20;99.90
13346;DHT22;6742;48.036;15.780;2022-08-19T20:41:16;22.20;99.90
13346;DHT22;6742;48.036;15.780;2022-08-19T20:43:44;22.20;99.90
13346;DHT22;6742;48.036;15.780;2022-08-19T20:46:13;22.20;99.90
13346;DHT22;6742;48.036;15.780;2022-08-19T20:48:40;22.20;99.90
13346;DHT22;6742;48.036;15.780;2022-08-19T20:51:08;22.20;99.90
13346;DHT22;6742;48.036;15.780;2022-08-19T20:53:37;22.20;99.90
13346;DHT22;6742;48.036;15.780;2022-08-19T20:56:05;22.10;99.90
13346;DHT22;6742;48.036;15.780;2022-08-19T20:58:33;22.10;99.90
13346;DHT22;6742;48.036;15.780;2022-08-19T21:01:03;22.10;99.90
13346;DHT22;6742;48.036;15.780;2022-08-19T21:03:36;22.00;99.90
13346;DHT22;6742;48.036;15.780;2022-08-19T21:06:06;22.00;99.90
13346;DHT22;6742;48.036;15.780;2022-08-19T21:08:33;21.90;99.90
13346;DHT22;6742;48.036;15.780;2022-08-19T21:11:01;21.90;99.90
13346;DHT22;6742;48.036;15.780;2022-08-19T21:13:28;21.90;99.90
13346;DHT22;6742;48.036;15.780;2022-08-19T21:15:55;21.90;99.90
13346;DHT22;6742;48.036;15.780;2022-08-19T21:18:22;21.90;99.90
13346;DHT22;6742;48.036;15.780;2022-08-19T21:20:53;21.90;99.90
13346;DHT22;6742;48.036;15.780;2022-08-19T21:23:23;21.90;99.90
13346;DHT22;6742;48.036;15.780;2022-08-19T21:25:52;21.90;99.90
13346;DHT22;6742;48.036;15.780;2022-08-19T21:28:19;22.00;99.90
13346;DHT22;6742;48.036;15.780;2022-08-19T21:30:48;22.00;99.90
13346;DHT22;6742;48.036;15.780;2022-08-19T21:33:16;22.00;99.90
13346;DHT22;6742;48.036;15.780;2022-08-19T21:35:43;21.90;99.90
13346;DHT22;6742;48.036;15.780;2022-08-19T21:38:11;21.90;99.90
13346;DHT22;6742;48.036;15.780;2022-08-19T21:40:38;21.90;99.90
13346;DHT22;6742;48.036;15.780;2022-08-19T21:43:05;21.90;99.90
13346;DHT22;6742;48.036;15.780;2022-08-19T21:45:32;21.90;99.90
13346;DHT22;6742;48.036;15.780;2022-08-19T21:47:59;21.70;99.90
13346;DHT22;6742;48.036;15.780;2022-08-19T21:50:26;21.50;99.90
13346;DHT22;6742;48.036;15.780;2022-08-19T21:55:25;21.50;99.90
13346;DHT22;6742;48.036;15.780;2022-08-19T21:57:52;21.50;99.90
13346;DHT22;6742;48.036;15.780;2022-08-19T22:00:23;21.50;99.90
13346;DHT22;6742;48.036;15.780;2022-08-19T22:02:50;21.50;99.90
13346;DHT22;6742;48.036;15.780;2022-08-19T22:05:17;21.40;99.90
13346;DHT22;6742;48.036;15.780;2022-08-19T22:10:18;21.40;99.90
13346;DHT22;6742;48.036;15.780;2022-08-19T22:15:15;21.40;99.90
13346;DHT22;6742;48.036;15.780;2022-08-19T22:17:42;21.30;99.90
13346;DHT22;6742;48.036;15.780;2022-08-19T22:20:12;21.30;99.90
13346;DHT22;6742;48.036;15.780;2022-08-19T22:22:44;21.30;99.90
13346;DHT22;6742;48.036;15.780;2022-08-19T22:25:15;21.30;99.90
13346;DHT22;6742;48.036;15.780;2022-08-19T22:27:42;21.30;99.90
13346;DHT22;6742;48.036;15.780;2022-08-19T22:32:46;21.20;99.90
13346;DHT22;6742;48.036;15.780;2022-08-19T22:35:15;21.20;99.90
13346;DHT22;6742;48.036;15.780;2022-08-19T22:37:45;21.20;99.90
13346;DHT22;6742;48.036;15.780;2022-08-19T22:40:14;21.30;99.90
13346;DHT22;6742;48.036;15.780;2022-08-19T22:42:41;21.10;99.90
13346;DHT22;6742;48.036;15.780;2022-08-19T22:47:38;21.10;99.90
13346;DHT22;6742;48.036;15.780;2022-08-19T22:52:33;21.00;99.90
13346;DHT22;6742;48.036;15.780;2022-08-19T22:55:02;21.00;99.90
13346;DHT22;6742;48.036;15.780;2022-08-19T22:57:30;21.00;99.90
13346;DHT22;6742;48.036;15.780;2022-08-19T22:59:57;21.00;99.90
13346;DHT22;6742;48.036;15.780;2022-08-19T23:04:58;21.00;99.90
13346;DHT22;6742;48.036;15.780;2022-08-19T23:07:26;20.90;99.90
13346;DHT22;6742;48.036;15.780;2022-08-19T23:09:52;20.90;99.90
13346;DHT22;6742;48.036;15.780;2022-08-19T23:12:26;20.90;99.90
13346;DHT22;6742;48.036;15.780;2022-08-19T23:14:53;20.90;99.90
13346;DHT22;6742;48.036;15.780;2022-08-19T23:17:20;20.90;99.90
13346;DHT22;6742;48.036;15.780;2022-08-19T23:22:17;20.90;99.90
13346;DHT22;6742;48.036;15.780;2022-08-19T23:24:44;20.90;99.90
13346;DHT22;6742;48.036;15.780;2022-08-19T23:27:11;20.80;99.90
13346;DHT22;6742;48.036;15.780;2022-08-19T23:29:56;20.80;99.90
13346;DHT22;6742;48.036;15.780;2022-08-19T23:32:40;20.80;99.90
13346;DHT22;6742;48.036;15.780;2022-08-19T23:35:08;20.80;99.90
13346;DHT22;6742;48.036;15.780;2022-08-19T23:37:36;20.80;99.90
13346;DHT22;6742;48.036;15.780;2022-08-19T23:40:04;20.80;99.90
13346;DHT22;6742;48.036;15.780;2022-08-19T23:42:32;20.80;99.90
13346;DHT22;6742;48.036;15.780;2022-08-19T23:45:00;20.70;99.90
13346;DHT22;6742;48.036;15.780;2022-08-19T23:47:27;20.70;99.90
13346;DHT22;6742;48.036;15.780;2022-08-19T23:49:54;20.70;99.90
13346;DHT22;6742;48.036;15.780;2022-08-19T23:52:21;20.80;99.90
13346;DHT22;6742;48.036;15.780;2022-08-19T23:54:49;20.80;99.90
13346;DHT22;6742;48.036;15.780;2022-08-19T23:57:16;20.80;99.90
13346;DHT22;6742;48.036;15.780;2022-08-19T23:59:43;20.80;99.90
